Funchalense 5 — CSKN — position and weather

sailwx.info

Track history (hours):
 
Tides and Currents Weather Stations Pressure Air Temp Water Temp Dewpoint Dewpoint Depression Visibility Wind Speed Wind Dir Waves Ship Positions

Funchalense 5

Last reported at 2014-Nov-28 05:33 UTC. Time now 2014-Nov-28 07:02 UTC.
Position N 38°44' W 009°06'.

Length 127 m; draft 6.5 m.

Type: Cargo ship. MMSI: 255804250.

Date/timePositionNaut miles runAvg speedWind from/ knotsBaromVisibWave heightAir tempDewpointWater temp
2014-Nov-28 05:33N 38°44' W 009°06'0 0.0
2014-Nov-28 04:33N 38°44' W 009°06'0 0.0
2014-Nov-28 03:32N 38°44' W 009°06'0 0.0
2014-Nov-28 02:32N 38°44' W 009°06'0 0.0
2014-Nov-28 01:32N 38°44' W 009°06'0 0.0
2014-Nov-28 00:31N 38°44' W 009°06'0 0.0
2014-Nov-27 23:31N 38°44' W 009°06'0 0.0
2014-Nov-27 22:33N 38°44' W 009°06'0 0.0
2014-Nov-27 21:33N 38°44' W 009°06'0 0.0
2014-Nov-27 20:32N 38°44' W 009°06'0 0.0
2014-Nov-27 19:29N 38°44' W 009°06'0 0.0
2014-Nov-27 18:32N 38°44' W 009°06'0 0.0
2014-Nov-27 17:31N 38°44' W 009°06'0 0.0
2014-Nov-27 16:31N 38°44' W 009°06'0 0.0
2014-Nov-27 15:33N 38°44' W 009°06'0 0.0
2014-Nov-27 14:33N 38°44' W 009°06'0 0.0
2014-Nov-27 13:29N 38°44' W 009°06'0 0.0
2014-Nov-27 12:32N 38°44' W 009°06'1 0.5
2014-Nov-27 11:33N 38°44' W 009°06'1211.9
2014-Nov-27 10:33N 38°39' W 009°20'2415.6
2014-Nov-27 09:03N 38°18' W 009°33'816.0
2014-Nov-27 08:32N 38°10' W 009°37'3215.7
2014-Nov-27 06:31N 37°39' W 009°47'  
2014-Nov-23 04:06N 38°36' W 009°24'915.9
2014-Nov-23 03:33N 38°41' W 009°14'7 6.8
2014-Nov-23 02:32N 38°44' W 009°06'0 0.0
2014-Nov-23 01:32N 38°44' W 009°06'0 0.1
2014-Nov-23 00:31N 38°44' W 009°06'0 0.0
2014-Nov-22 23:28N 38°44' W 009°06'0 0.0
2014-Nov-22 22:34N 38°44' W 009°06'0 0.0
2014-Nov-22 21:30N 38°44' W 009°06'0 0.0
2014-Nov-22 20:33N 38°44' W 009°06'0 0.0
2014-Nov-22 19:32N 38°44' W 009°06'0 0.0
2014-Nov-22 18:32N 38°44' W 009°06'0 0.0
2014-Nov-22 17:31N 38°44' W 009°06'0 0.0
2014-Nov-22 16:31N 38°44' W 009°06'0 0.0
2014-Nov-22 15:33N 38°44' W 009°06'0 0.0
2014-Nov-22 14:33N 38°44' W 009°06'0 0.0
2014-Nov-22 13:33N 38°44' W 009°06'3 3.3
2014-Nov-22 12:33N 38°42' W 009°09'1313.0
2014-Nov-22 11:33N 38°37' W 009°25'  
Track history (hours):
 
Tides and Currents Weather Stations Pressure Air Temp Water Temp Dewpoint Dewpoint Depression Visibility Wind Speed Wind Dir Waves Ship Positions

Funchalense 5

Last reported at 2014-Nov-28 05:33 UTC. Time now 2014-Nov-28 07:02 UTC.
Position N 38°44' W 009°06'.

Length 127 m; draft 6.5 m.

Type: Cargo ship. MMSI: 255804250.

Date/timePositionNaut miles runAvg speedWind from/ knotsBaromVisibWave heightAir tempDewpointWater temp
2014-Nov-28 05:33N 38°44' W 009°06'0 0.0
2014-Nov-28 04:33N 38°44' W 009°06'0 0.0
2014-Nov-28 03:32N 38°44' W 009°06'0 0.0
2014-Nov-28 02:32N 38°44' W 009°06'0 0.0
2014-Nov-28 01:32N 38°44' W 009°06'0 0.0
2014-Nov-28 00:31N 38°44' W 009°06'0 0.0
2014-Nov-27 23:31N 38°44' W 009°06'0 0.0
2014-Nov-27 22:33N 38°44' W 009°06'0 0.0
2014-Nov-27 21:33N 38°44' W 009°06'0 0.0
2014-Nov-27 20:32N 38°44' W 009°06'0 0.0
2014-Nov-27 19:29N 38°44' W 009°06'0 0.0
2014-Nov-27 18:32N 38°44' W 009°06'0 0.0
2014-Nov-27 17:31N 38°44' W 009°06'0 0.0
2014-Nov-27 16:31N 38°44' W 009°06'0 0.0
2014-Nov-27 15:33N 38°44' W 009°06'0 0.0
2014-Nov-27 14:33N 38°44' W 009°06'0 0.0
2014-Nov-27 13:29N 38°44' W 009°06'0 0.0
2014-Nov-27 12:32N 38°44' W 009°06'1 0.5
2014-Nov-27 11:33N 38°44' W 009°06'1211.9
2014-Nov-27 10:33N 38°39' W 009°20'2415.6
2014-Nov-27 09:03N 38°18' W 009°33'816.0
2014-Nov-27 08:32N 38°10' W 009°37'3215.7
2014-Nov-27 06:31N 37°39' W 009°47'  
2014-Nov-23 04:06N 38°36' W 009°24'915.9
2014-Nov-23 03:33N 38°41' W 009°14'7 6.8
2014-Nov-23 02:32N 38°44' W 009°06'0 0.0
2014-Nov-23 01:32N 38°44' W 009°06'0 0.1
2014-Nov-23 00:31N 38°44' W 009°06'0 0.0
2014-Nov-22 23:28N 38°44' W 009°06'0 0.0
2014-Nov-22 22:34N 38°44' W 009°06'0 0.0
2014-Nov-22 21:30N 38°44' W 009°06'0 0.0
2014-Nov-22 20:33N 38°44' W 009°06'0 0.0
2014-Nov-22 19:32N 38°44' W 009°06'0 0.0
2014-Nov-22 18:32N 38°44' W 009°06'0 0.0
2014-Nov-22 17:31N 38°44' W 009°06'0 0.0
2014-Nov-22 16:31N 38°44' W 009°06'0 0.0
2014-Nov-22 15:33N 38°44' W 009°06'0 0.0
2014-Nov-22 14:33N 38°44' W 009°06'0 0.0
2014-Nov-22 13:33N 38°44' W 009°06'3 3.3
2014-Nov-22 12:33N 38°42' W 009°09'1313.0
2014-Nov-22 11:33N 38°37' W 009°25'  

Dump ship's entire track history